sensor_id;sensor_type;location;lat;lon;timestamp;pressure;altitude;pressure_sealevel;temperature;humidity
42289;BME280;30230;47.520;19.016;2023-03-05T00:01:08;98831.72;;;1.89;73.21
42289;BME280;30230;47.520;19.016;2023-03-05T00:03:09;98835.03;;;1.91;72.84
42289;BME280;30230;47.520;19.016;2023-03-05T00:05:09;98847.28;;;1.75;73.21
42289;BME280;30230;47.520;19.016;2023-03-05T00:07:10;98826.66;;;1.77;73.13
42289;BME280;30230;47.520;19.016;2023-03-05T00:09:11;98825.34;;;1.81;72.59
42289;BME280;30230;47.520;19.016;2023-03-05T00:11:12;98832.00;;;1.77;73.75
42289;BME280;30230;47.520;19.016;2023-03-05T00:13:13;98830.31;;;1.76;73.70
42289;BME280;30230;47.520;19.016;2023-03-05T00:15:13;98825.97;;;1.75;73.38
42289;BME280;30230;47.520;19.016;2023-03-05T00:17:13;98833.41;;;1.64;74.06
42289;BME280;30230;47.520;19.016;2023-03-05T00:19:14;98824.94;;;1.68;73.57
42289;BME280;30230;47.520;19.016;2023-03-05T00:21:21;98826.72;;;1.60;74.18
42289;BME280;30230;47.520;19.016;2023-03-05T00:23:22;98826.72;;;1.60;73.85
42289;BME280;30230;47.520;19.016;2023-03-05T00:25:22;98832.94;;;1.68;74.18
42289;BME280;30230;47.520;19.016;2023-03-05T00:27:22;98835.22;;;1.63;74.16
42289;BME280;30230;47.520;19.016;2023-03-05T00:29:23;98839.66;;;1.54;75.12
42289;BME280;30230;47.520;19.016;2023-03-05T00:31:26;98832.78;;;1.44;74.76
42289;BME280;30230;47.520;19.016;2023-03-05T00:33:29;98837.69;;;1.56;74.60
42289;BME280;30230;47.520;19.016;2023-03-05T00:35:29;98828.81;;;1.48;74.63
42289;BME280;30230;47.520;19.016;2023-03-05T00:37:30;98824.38;;;1.56;73.70
42289;BME280;30230;47.520;19.016;2023-03-05T00:39:30;98837.81;;;1.55;74.13
42289;BME280;30230;47.520;19.016;2023-03-05T00:41:30;98825.06;;;1.59;73.77
42289;BME280;30230;47.520;19.016;2023-03-05T00:43:31;98824.28;;;1.66;73.62
42289;BME280;30230;47.520;19.016;2023-03-05T00:45:32;98824.53;;;1.55;74.43
42289;BME280;30230;47.520;19.016;2023-03-05T00:47:33;98812.22;;;1.54;74.45
42289;BME280;30230;47.520;19.016;2023-03-05T00:49:33;98816.41;;;1.56;74.36
42289;BME280;30230;47.520;19.016;2023-03-05T00:51:34;98802.94;;;1.58;73.83
42289;BME280;30230;47.520;19.016;2023-03-05T00:53:35;98800.44;;;1.56;74.27
42289;BME280;30230;47.520;19.016;2023-03-05T00:55:35;98810.34;;;1.46;74.62
42289;BME280;30230;47.520;19.016;2023-03-05T00:57:35;98806.88;;;1.54;74.03
42289;BME280;30230;47.520;19.016;2023-03-05T00:59:36;98814.94;;;1.62;73.83
42289;BME280;30230;47.520;19.016;2023-03-05T01:01:36;98797.78;;;1.56;73.90
42289;BME280;30230;47.520;19.016;2023-03-05T01:03:37;98810.06;;;1.58;73.62
42289;BME280;30230;47.520;19.016;2023-03-05T01:05:37;98796.97;;;1.64;73.20
42289;BME280;30230;47.520;19.016;2023-03-05T01:07:37;98812.22;;;1.54;73.53
42289;BME280;30230;47.520;19.016;2023-03-05T01:09:38;98802.75;;;1.60;72.80
42289;BME280;30230;47.520;19.016;2023-03-05T01:11:38;98806.22;;;1.52;73.49
42289;BME280;30230;47.520;19.016;2023-03-05T01:13:39;98805.88;;;1.55;73.68
42289;BME280;30230;47.520;19.016;2023-03-05T01:15:40;98800.72;;;1.53;74.19
42289;BME280;30230;47.520;19.016;2023-03-05T01:17:40;98807.13;;;1.69;72.87
42289;BME280;30230;47.520;19.016;2023-03-05T01:19:41;98797.78;;;1.56;73.65
42289;BME280;30230;47.520;19.016;2023-03-05T01:21:41;98811.13;;;1.39;73.92
42289;BME280;30230;47.520;19.016;2023-03-05T01:23:42;98808.53;;;1.47;73.32
42289;BME280;30230;47.520;19.016;2023-03-05T01:25:42;98808.16;;;1.42;74.09
42289;BME280;30230;47.520;19.016;2023-03-05T01:27:43;98814.41;;;1.59;73.71
42289;BME280;30230;47.520;19.016;2023-03-05T01:29:43;98805.22;;;1.53;73.45
42289;BME280;30230;47.520;19.016;2023-03-05T01:31:44;98819.69;;;1.50;73.80
42289;BME280;30230;47.520;19.016;2023-03-05T01:33:44;98818.22;;;1.56;73.29
42289;BME280;30230;47.520;19.016;2023-03-05T01:35:48;98821.03;;;1.54;73.91
42289;BME280;30230;47.520;19.016;2023-03-05T01:37:49;98818.53;;;1.53;74.08
42289;BME280;30230;47.520;19.016;2023-03-05T01:39:50;98824.94;;;1.42;74.55
42289;BME280;30230;47.520;19.016;2023-03-05T01:41:50;98821.19;;;1.53;74.62
42289;BME280;30230;47.520;19.016;2023-03-05T01:43:51;98825.31;;;1.47;74.55
42289;BME280;30230;47.520;19.016;2023-03-05T01:48:26;98821.28;;;1.69;72.47
42289;BME280;30230;47.520;19.016;2023-03-05T01:50:27;98808.09;;;1.60;73.01
42289;BME280;30230;47.520;19.016;2023-03-05T01:52:28;98817.94;;;1.67;73.55
42289;BME280;30230;47.520;19.016;2023-03-05T01:54:44;98814.59;;;1.65;72.93
42289;BME280;30230;47.520;19.016;2023-03-05T01:56:47;98816.22;;;1.58;73.94
42289;BME280;30230;47.520;19.016;2023-03-05T01:58:50;98812.84;;;1.48;74.81
42289;BME280;30230;47.520;19.016;2023-03-05T02:00:52;98817.88;;;1.51;73.93
42289;BME280;30230;47.520;19.016;2023-03-05T02:02:55;98823.59;;;1.64;73.96
42289;BME280;30230;47.520;19.016;2023-03-05T02:05:01;98823.59;;;1.64;74.19
42289;BME280;30230;47.520;19.016;2023-03-05T02:07:03;98819.91;;;1.57;74.01
42289;BME280;30230;47.520;19.016;2023-03-05T02:09:04;98818.13;;;1.66;73.54
42289;BME280;30230;47.520;19.016;2023-03-05T02:11:04;98818.56;;;1.87;73.06
42289;BME280;30230;47.520;19.016;2023-03-05T02:13:12;98811.72;;;1.85;72.83
42289;BME280;30230;47.520;19.016;2023-03-05T02:15:15;98814.72;;;1.90;72.68
42289;BME280;30230;47.520;19.016;2023-03-05T02:17:16;98815.69;;;1.80;72.24
42289;BME280;30230;47.520;19.016;2023-03-05T02:19:16;98815.69;;;1.80;73.31
42289;BME280;30230;47.520;19.016;2023-03-05T02:21:28;98826.31;;;1.80;72.58
42289;BME280;30230;47.520;19.016;2023-03-05T02:23:31;98816.38;;;1.82;72.55
42289;BME280;30230;47.520;19.016;2023-03-05T02:25:32;98807.75;;;1.89;72.49
42289;BME280;30230;47.520;19.016;2023-03-05T02:27:33;98814.34;;;1.76;73.15
42289;BME280;30230;47.520;19.016;2023-03-05T02:29:38;98814.72;;;1.81;73.08
42289;BME280;30230;47.520;19.016;2023-03-05T02:31:41;98813.34;;;1.77;73.54
42289;BME280;30230;47.520;19.016;2023-03-05T02:33:41;98825.19;;;1.83;73.39
42289;BME280;30230;47.520;19.016;2023-03-05T02:35:42;98835.53;;;1.86;74.37
42289;BME280;30230;47.520;19.016;2023-03-05T02:37:43;98828.53;;;1.85;73.36
42289;BME280;30230;47.520;19.016;2023-03-05T02:39:44;98816.84;;;1.78;74.24
42289;BME280;30230;47.520;19.016;2023-03-05T02:41:44;98814.00;;;1.79;75.04
42289;BME280;30230;47.520;19.016;2023-03-05T02:43:44;98808.69;;;1.79;73.88
42289;BME280;30230;47.520;19.016;2023-03-05T02:45:45;98817.38;;;1.81;73.75
42289;BME280;30230;47.520;19.016;2023-03-05T02:47:45;98816.03;;;1.86;74.10
42289;BME280;30230;47.520;19.016;2023-03-05T02:49:46;98807.38;;;1.83;74.62
42289;BME280;30230;47.520;19.016;2023-03-05T02:51:46;98812.34;;;1.78;74.17
42289;BME280;30230;47.520;19.016;2023-03-05T02:53:46;98809.53;;;1.80;74.57
42289;BME280;30230;47.520;19.016;2023-03-05T02:55:48;98805.03;;;1.80;75.76
42289;BME280;30230;47.520;19.016;2023-03-05T02:57:49;98800.22;;;1.76;74.78
42289;BME280;30230;47.520;19.016;2023-03-05T02:59:49;98796.66;;;1.67;75.37
42289;BME280;30230;47.520;19.016;2023-03-05T03:01:50;98790.28;;;1.86;73.97
42289;BME280;30230;47.520;19.016;2023-03-05T03:03:50;98795.50;;;1.70;75.05
42289;BME280;30230;47.520;19.016;2023-03-05T03:05:51;98795.66;;;1.68;74.89
42289;BME280;30230;47.520;19.016;2023-03-05T03:07:51;98791.34;;;1.67;75.32
42289;BME280;30230;47.520;19.016;2023-03-05T03:09:52;98803.34;;;1.71;75.18
42289;BME280;30230;47.520;19.016;2023-03-05T03:11:52;98791.53;;;1.74;74.54
42289;BME280;30230;47.520;19.016;2023-03-05T03:13:53;98797.53;;;1.76;74.80
42289;BME280;30230;47.520;19.016;2023-03-05T03:16:04;98796.50;;;1.69;75.81
42289;BME280;30230;47.520;19.016;2023-03-05T03:18:05;98793.81;;;1.69;75.71
42289;BME280;30230;47.520;19.016;2023-03-05T03:20:08;98793.00;;;1.68;75.80
42289;BME280;30230;47.520;19.016;2023-03-05T03:22:11;98798.22;;;1.78;75.25
42289;BME280;30230;47.520;19.016;2023-03-05T03:24:11;98797.22;;;1.79;75.55
42289;BME280;30230;47.520;19.016;2023-03-05T03:26:12;98793.72;;;1.78;75.06
42289;BME280;30230;47.520;19.016;2023-03-05T03:28:12;98792.34;;;1.74;74.93
42289;BME280;30230;47.520;19.016;2023-03-05T03:30:13;98788.56;;;1.77;75.35
42289;BME280;30230;47.520;19.016;2023-03-05T03:32:14;98790.53;;;1.75;75.31
42289;BME280;30230;47.520;19.016;2023-03-05T03:34:15;98788.34;;;1.70;75.99
42289;BME280;30230;47.520;19.016;2023-03-05T03:36:16;98780.03;;;1.73;75.87
42289;BME280;30230;47.520;19.016;2023-03-05T03:38:17;98783.66;;;1.64;76.02
42289;BME280;30230;47.520;19.016;2023-03-05T03:40:17;98782.50;;;1.67;76.29
42289;BME280;30230;47.520;19.016;2023-03-05T03:42:19;98774.41;;;1.76;75.69
42289;BME280;30230;47.520;19.016;2023-03-05T03:44:21;98780.94;;;1.82;75.56
42289;BME280;30230;47.520;19.016;2023-03-05T03:46:21;98783.22;;;1.77;75.88
42289;BME280;30230;47.520;19.016;2023-03-05T03:48:22;98776.25;;;1.84;75.41
42289;BME280;30230;47.520;19.016;2023-03-05T03:50:22;98781.94;;;1.81;75.63
42289;BME280;30230;47.520;19.016;2023-03-05T03:52:24;98798.50;;;1.75;76.23
42289;BME280;30230;47.520;19.016;2023-03-05T03:54:25;98781.94;;;1.81;75.80
42289;BME280;30230;47.520;19.016;2023-03-05T03:56:25;98789.91;;;1.81;75.83
42289;BME280;30230;47.520;19.016;2023-03-05T03:58:26;98802.00;;;1.75;76.29
42289;BME280;30230;47.520;19.016;2023-03-05T04:00:26;98789.28;;;1.95;75.93
42289;BME280;30230;47.520;19.016;2023-03-05T04:02:27;98790.75;;;1.90;75.90
42289;BME280;30230;47.520;19.016;2023-03-05T04:04:27;98792.28;;;1.92;74.79
42289;BME280;30230;47.520;19.016;2023-03-05T04:06:29;98778.50;;;1.97;74.74
42289;BME280;30230;47.520;19.016;2023-03-05T04:08:30;98778.13;;;1.92;75.68
42289;BME280;30230;47.520;19.016;2023-03-05T04:10:30;98778.97;;;1.92;75.46
42289;BME280;30230;47.520;19.016;2023-03-05T04:12:30;98775.19;;;2.03;74.92
42289;BME280;30230;47.520;19.016;2023-03-05T04:14:31;98771.19;;;2.07;74.75
42289;BME280;30230;47.520;19.016;2023-03-05T04:16:31;98776.19;;;2.10;74.36
42289;BME280;30230;47.520;19.016;2023-03-05T04:18:32;98773.53;;;2.02;74.73
42289;BME280;30230;47.520;19.016;2023-03-05T04:20:32;98776.53;;;2.07;75.48
42289;BME280;30230;47.520;19.016;2023-03-05T04:22:33;98777.50;;;2.06;74.94
42289;BME280;30230;47.520;19.016;2023-03-05T04:24:33;98779.31;;;1.97;75.17
42289;BME280;30230;47.520;19.016;2023-03-05T04:26:34;98772.50;;;2.03;75.21
42289;BME280;30230;47.520;19.016;2023-03-05T04:28:34;98774.22;;;2.12;74.76
42289;BME280;30230;47.520;19.016;2023-03-05T04:30:35;98775.19;;;2.03;74.96
42289;BME280;30230;47.520;19.016;2023-03-05T04:32:36;98774.00;;;2.05;75.29
42289;BME280;30230;47.520;19.016;2023-03-05T04:34:36;98771.19;;;2.07;75.89
42289;BME280;30230;47.520;19.016;2023-03-05T04:36:37;98762.00;;;2.01;75.30
42289;BME280;30230;47.520;19.016;2023-03-05T04:38:37;98772.88;;;2.08;75.45
42289;BME280;30230;47.520;19.016;2023-03-05T04:40:38;98765.19;;;2.05;75.46
42289;BME280;30230;47.520;19.016;2023-03-05T04:42:39;98776.38;;;2.17;75.31
42289;BME280;30230;47.520;19.016;2023-03-05T04:44:40;98759.50;;;2.00;75.39
42289;BME280;30230;47.520;19.016;2023-03-05T04:46:40;98766.56;;;2.17;74.78
42289;BME280;30230;47.520;19.016;2023-03-05T04:48:40;98763.53;;;2.04;75.61
42289;BME280;30230;47.520;19.016;2023-03-05T04:50:41;98767.69;;;2.06;75.70
42289;BME280;30230;47.520;19.016;2023-03-05T04:52:43;98767.84;;;2.05;76.02
42289;BME280;30230;47.520;19.016;2023-03-05T04:54:43;98761.03;;;2.02;75.58
42289;BME280;30230;47.520;19.016;2023-03-05T04:56:44;98758.53;;;2.09;75.63
42289;BME280;30230;47.520;19.016;2023-03-05T04:58:44;98765.22;;;2.13;75.71
42289;BME280;30230;47.520;19.016;2023-03-05T05:00:45;98757.19;;;2.05;75.64
42289;BME280;30230;47.520;19.016;2023-03-05T05:02:47;98764.19;;;2.06;76.05
42289;BME280;30230;47.520;19.016;2023-03-05T05:04:51;98763.53;;;2.04;75.86
42289;BME280;30230;47.520;19.016;2023-03-05T05:06:54;98764.34;;;2.04;75.79
42289;BME280;30230;47.520;19.016;2023-03-05T05:08:55;98758.84;;;1.98;76.88
42289;BME280;30230;47.520;19.016;2023-03-05T05:10:56;98757.53;;;2.02;76.88
42289;BME280;30230;47.520;19.016;2023-03-05T05:12:56;98753.19;;;2.01;76.31
42289;BME280;30230;47.520;19.016;2023-03-05T05:14:57;98764.22;;;2.14;75.42
42289;BME280;30230;47.520;19.016;2023-03-05T05:16:57;98760.91;;;2.12;75.92
42289;BME280;30230;47.520;19.016;2023-03-05T05:18:58;98759.38;;;2.09;75.87
42289;BME280;30230;47.520;19.016;2023-03-05T05:20:59;98768.06;;;2.20;75.82
42289;BME280;30230;47.520;19.016;2023-03-05T05:23:00;98757.03;;;2.06;75.68
42289;BME280;30230;47.520;19.016;2023-03-05T05:25:00;98763.03;;;2.17;76.09
42289;BME280;30230;47.520;19.016;2023-03-05T05:27:00;98769.25;;;2.25;76.01
42289;BME280;30230;47.520;19.016;2023-03-05T05:29:01;98762.41;;;2.23;75.77
42289;BME280;30230;47.520;19.016;2023-03-05T05:31:06;98769.91;;;2.19;76.34
42289;BME280;30230;47.520;19.016;2023-03-05T05:33:06;98764.09;;;2.32;75.47
42289;BME280;30230;47.520;19.016;2023-03-05T05:35:08;98766.91;;;2.22;75.02
42289;BME280;30230;47.520;19.016;2023-03-05T05:37:08;98772.06;;;2.24;75.59
42289;BME280;30230;47.520;19.016;2023-03-05T05:39:09;98766.94;;;2.39;74.63
42289;BME280;30230;47.520;19.016;2023-03-05T05:41:13;98769.63;;;2.39;74.55
42289;BME280;30230;47.520;19.016;2023-03-05T05:43:13;98772.09;;;2.40;74.85
42289;BME280;30230;47.520;19.016;2023-03-05T05:45:14;98780.75;;;2.34;74.80
42289;BME280;30230;47.520;19.016;2023-03-05T05:47:15;98788.94;;;2.41;74.98
42289;BME280;30230;47.520;19.016;2023-03-05T05:49:16;98785.59;;;2.39;74.48
42289;BME280;30230;47.520;19.016;2023-03-05T05:51:20;98788.00;;;2.74;88.78
42289;BME280;30230;47.520;19.016;2023-03-05T05:53:21;98794.97;;;2.83;76.27
42289;BME280;30230;47.520;19.016;2023-03-05T05:55:22;98805.34;;;2.86;74.13
42289;BME280;30230;47.520;19.016;2023-03-05T05:57:22;98791.16;;;2.70;73.72
42289;BME280;30230;47.520;19.016;2023-03-05T05:59:24;98799.31;;;2.76;74.03
42289;BME280;30230;47.520;19.016;2023-03-05T06:01:27;98802.97;;;2.83;73.24
42289;BME280;30230;47.520;19.016;2023-03-05T06:03:28;98788.00;;;2.74;72.77
42289;BME280;30230;47.520;19.016;2023-03-05T06:05:28;98799.16;;;2.70;72.64
42289;BME280;30230;47.520;19.016;2023-03-05T06:07:29;98797.81;;;2.74;72.88
42289;BME280;30230;47.520;19.016;2023-03-05T06:09:30;98794.31;;;2.73;72.18
42289;BME280;30230;47.520;19.016;2023-03-05T06:11:31;98793.16;;;2.59;73.62
42289;BME280;30230;47.520;19.016;2023-03-05T06:13:34;98797.97;;;2.64;74.01
42289;BME280;30230;47.520;19.016;2023-03-05T06:15:34;98796.47;;;2.61;73.68
42289;BME280;30230;47.520;19.016;2023-03-05T06:17:35;98787.28;;;2.56;73.42
42289;BME280;30230;47.520;19.016;2023-03-05T06:19:35;98793.63;;;2.55;73.70
42289;BME280;30230;47.520;19.016;2023-03-05T06:21:36;98794.78;;;2.52;73.95
42289;BME280;30230;47.520;19.016;2023-03-05T06:23:36;98795.28;;;2.56;73.09
42289;BME280;30230;47.520;19.016;2023-03-05T06:25:36;98791.63;;;2.73;73.23
42289;BME280;30230;47.520;19.016;2023-03-05T06:27:37;98795.66;;;2.77;72.36
42289;BME280;30230;47.520;19.016;2023-03-05T06:29:38;98795.50;;;2.87;72.93
42289;BME280;30230;47.520;19.016;2023-03-05T06:31:40;98799.97;;;2.78;73.08
42289;BME280;30230;47.520;19.016;2023-03-05T06:33:41;98790.84;;;2.81;72.22
42289;BME280;30230;47.520;19.016;2023-03-05T06:35:41;98792.81;;;2.79;72.27
42289;BME280;30230;47.520;19.016;2023-03-05T06:37:42;98789.97;;;2.72;72.53
42289;BME280;30230;47.520;19.016;2023-03-05T06:39:42;98797.97;;;2.72;72.96
42289;BME280;30230;47.520;19.016;2023-03-05T06:41:43;98803.81;;;2.76;72.41
42289;BME280;30230;47.520;19.016;2023-03-05T06:43:45;98796.34;;;2.79;73.20
42289;BME280;30230;47.520;19.016;2023-03-05T06:45:47;98799.00;;;2.96;72.29
42289;BME280;30230;47.520;19.016;2023-03-05T06:47:47;98797.16;;;3.21;79.96
42289;BME280;30230;47.520;19.016;2023-03-05T06:49:47;98802.97;;;3.24;72.75
42289;BME280;30230;47.520;19.016;2023-03-05T06:51:48;98801.16;;;3.33;70.87
42289;BME280;30230;47.520;19.016;2023-03-05T06:53:48;98796.50;;;3.27;70.92
42289;BME280;30230;47.520;19.016;2023-03-05T06:55:49;98807.84;;;3.21;71.38
42289;BME280;30230;47.520;19.016;2023-03-05T06:57:50;98802.31;;;3.30;70.72
42289;BME280;30230;47.520;19.016;2023-03-05T06:59:50;98802.84;;;3.26;71.42
42289;BME280;30230;47.520;19.016;2023-03-05T07:01:51;98802.47;;;3.29;69.99
42289;BME280;30230;47.520;19.016;2023-03-05T07:03:53;98800.81;;;3.20;70.68
42289;BME280;30230;47.520;19.016;2023-03-05T07:05:53;98791.16;;;3.19;70.84
42289;BME280;30230;47.520;19.016;2023-03-05T07:07:54;98806.47;;;3.25;70.63
42289;BME280;30230;47.520;19.016;2023-03-05T07:09:54;98809.50;;;3.22;70.67
42289;BME280;30230;47.520;19.016;2023-03-05T07:11:55;98803.63;;;3.34;69.91
42289;BME280;30230;47.520;19.016;2023-03-05T07:13:56;98811.50;;;3.20;70.63
42289;BME280;30230;47.520;19.016;2023-03-05T07:15:56;98813.00;;;3.14;71.56
42289;BME280;30230;47.520;19.016;2023-03-05T07:17:57;98801.97;;;3.33;70.95
42289;BME280;30230;47.520;19.016;2023-03-05T07:19:57;98808.00;;;3.27;69.86
42289;BME280;30230;47.520;19.016;2023-03-05T07:21:58;98804.50;;;3.10;71.71
42289;BME280;30230;47.520;19.016;2023-03-05T07:24:00;98807.34;;;3.17;71.89
42289;BME280;30230;47.520;19.016;2023-03-05T07:26:02;98806.66;;;3.31;70.46
42289;BME280;30230;47.520;19.016;2023-03-05T07:28:04;98805.97;;;3.29;71.34
42289;BME280;30230;47.520;19.016;2023-03-05T07:30:06;98809.31;;;3.39;70.44
42289;BME280;30230;47.520;19.016;2023-03-05T07:32:06;98804.47;;;3.43;70.06
42289;BME280;30230;47.520;19.016;2023-03-05T07:34:08;98807.81;;;3.37;70.73
42289;BME280;30230;47.520;19.016;2023-03-05T07:36:10;98805.84;;;3.23;71.87
42289;BME280;30230;47.520;19.016;2023-03-05T07:38:11;98803.00;;;3.32;71.42
42289;BME280;30230;47.520;19.016;2023-03-05T07:40:12;98791.97;;;3.19;72.16
42289;BME280;30230;47.520;19.016;2023-03-05T07:42:12;98802.66;;;3.27;71.50
42289;BME280;30230;47.520;19.016;2023-03-05T07:44:12;98801.31;;;3.39;71.00
42289;BME280;30230;47.520;19.016;2023-03-05T07:46:15;98811.16;;;3.47;70.61
42289;BME280;30230;47.520;19.016;2023-03-05T07:48:17;98800.47;;;3.39;71.61
42289;BME280;30230;47.520;19.016;2023-03-05T07:50:19;98792.94;;;3.51;71.28
42289;BME280;30230;47.520;19.016;2023-03-05T07:52:20;98804.28;;;3.45;71.84
42289;BME280;30230;47.520;19.016;2023-03-05T07:54:21;98795.28;;;3.46;71.46
42289;BME280;30230;47.520;19.016;2023-03-05T07:56:23;98798.63;;;3.48;71.09
42289;BME280;30230;47.520;19.016;2023-03-05T07:58:24;98791.63;;;3.47;71.16
42289;BME280;30230;47.520;19.016;2023-03-05T08:00:25;98796.94;;;3.55;72.39
42289;BME280;30230;47.520;19.016;2023-03-05T08:02:25;98791.78;;;3.53;71.21
42289;BME280;30230;47.520;19.016;2023-03-05T08:04:26;98790.25;;;3.51;71.13
42289;BME280;30230;47.520;19.016;2023-03-05T08:06:26;98791.25;;;3.58;70.41
42289;BME280;30230;47.520;19.016;2023-03-05T08:08:27;98798.91;;;3.61;70.56
42289;BME280;30230;47.520;19.016;2023-03-05T08:10:28;98796.94;;;3.63;70.62
42289;BME280;30230;47.520;19.016;2023-03-05T08:12:29;98787.25;;;3.62;71.06
42289;BME280;30230;47.520;19.016;2023-03-05T08:14:29;98793.56;;;3.61;70.75
42289;BME280;30230;47.520;19.016;2023-03-05T08:16:30;98792.06;;;3.66;70.47
42289;BME280;30230;47.520;19.016;2023-03-05T08:18:30;98795.59;;;3.67;70.58
42289;BME280;30230;47.520;19.016;2023-03-05T08:20:34;98792.41;;;3.63;70.58
42289;BME280;30230;47.520;19.016;2023-03-05T08:22:38;98799.81;;;3.92;71.55
42289;BME280;30230;47.520;19.016;2023-03-05T08:24:38;98790.66;;;3.87;70.27
42289;BME280;30230;47.520;19.016;2023-03-05T08:26:39;98787.31;;;3.93;71.62
42289;BME280;30230;47.520;19.016;2023-03-05T08:28:40;98782.25;;;4.06;69.93
42289;BME280;30230;47.520;19.016;2023-03-05T08:30:40;98790.53;;;4.20;69.43
42289;BME280;30230;47.520;19.016;2023-03-05T08:32:41;98794.34;;;4.25;68.64
42289;BME280;30230;47.520;19.016;2023-03-05T08:34:42;98798.59;;;4.42;67.79
42289;BME280;30230;47.520;19.016;2023-03-05T08:36:42;98775.94;;;4.30;67.04
42289;BME280;30230;47.520;19.016;2023-03-05T08:38:43;98792.28;;;4.35;68.04
42289;BME280;30230;47.520;19.016;2023-03-05T08:40:46;98790.34;;;4.29;68.81
42289;BME280;30230;47.520;19.016;2023-03-05T08:42:47;98795.00;;;4.27;69.09
42289;BME280;30230;47.520;19.016;2023-03-05T08:44:47;98787.28;;;4.32;68.32
42289;BME280;30230;47.520;19.016;2023-03-05T08:46:48;98792.75;;;4.39;68.20
42289;BME280;30230;47.520;19.016;2023-03-05T08:48:48;98789.09;;;4.40;67.67
42289;BME280;30230;47.520;19.016;2023-03-05T08:50:49;98781.22;;;4.38;67.86
42289;BME280;30230;47.520;19.016;2023-03-05T08:52:49;98776.69;;;4.16;68.69
42289;BME280;30230;47.520;19.016;2023-03-05T08:54:50;98777.56;;;4.08;68.19
42289;BME280;30230;47.520;19.016;2023-03-05T08:56:50;98764.34;;;4.15;68.54
42289;BME280;30230;47.520;19.016;2023-03-05T08:58:51;98776.81;;;4.23;69.20
42289;BME280;30230;47.520;19.016;2023-03-05T09:00:52;98773.69;;;4.19;69.17
42289;BME280;30230;47.520;19.016;2023-03-05T09:02:52;98775.34;;;4.20;68.90
42289;BME280;30230;47.520;19.016;2023-03-05T09:04:53;98779.56;;;4.37;68.69
42289;BME280;30230;47.520;19.016;2023-03-05T09:06:53;98775.72;;;4.40;68.20
42289;BME280;30230;47.520;19.016;2023-03-05T09:08:54;98778.88;;;4.43;68.50
42289;BME280;30230;47.520;19.016;2023-03-05T09:10:55;98757.44;;;4.52;67.19
42289;BME280;30230;47.520;19.016;2023-03-05T09:12:55;98782.09;;;4.62;67.17
42289;BME280;30230;47.520;19.016;2023-03-05T09:14:56;98772.53;;;4.67;66.94
42289;BME280;30230;47.520;19.016;2023-03-05T09:16:56;98772.59;;;4.82;66.99
42289;BME280;30230;47.520;19.016;2023-03-05T09:18:58;98768.91;;;4.83;65.87
42289;BME280;30230;47.520;19.016;2023-03-05T09:21:03;98768.56;;;4.86;66.19
42289;BME280;30230;47.520;19.016;2023-03-05T09:23:04;98775.72;;;4.86;66.96
42289;BME280;30230;47.520;19.016;2023-03-05T09:25:06;98761.91;;;4.82;66.72
42289;BME280;30230;47.520;19.016;2023-03-05T09:27:06;98771.41;;;4.85;66.65
42289;BME280;30230;47.520;19.016;2023-03-05T09:29:08;98770.56;;;4.84;67.36
42289;BME280;30230;47.520;19.016;2023-03-05T09:31:09;98771.53;;;4.91;66.64
42289;BME280;30230;47.520;19.016;2023-03-05T09:33:10;98763.56;;;4.83;67.62
42289;BME280;30230;47.520;19.016;2023-03-05T09:35:11;98762.00;;;4.89;67.14
42289;BME280;30230;47.520;19.016;2023-03-05T09:37:11;98762.84;;;4.89;67.93
42289;BME280;30230;47.520;19.016;2023-03-05T09:39:12;98762.78;;;4.97;68.02
42289;BME280;30230;47.520;19.016;2023-03-05T09:46:11;98763.22;;;5.01;68.17
42289;BME280;30230;47.520;19.016;2023-03-05T09:48:19;98765.56;;;5.04;68.13
42289;BME280;30230;47.520;19.016;2023-03-05T09:51:01;98763.28;;;5.16;66.62
42289;BME280;30230;47.520;19.016;2023-03-05T09:52:58;98764.00;;;5.10;66.34
42289;BME280;30230;47.520;19.016;2023-03-05T09:55:00;98761.50;;;5.08;65.23
42289;BME280;30230;47.520;19.016;2023-03-05T09:57:04;98749.50;;;5.04;66.10
42289;BME280;30230;47.520;19.016;2023-03-05T09:59:33;98748.38;;;4.99;66.16
42289;BME280;30230;47.520;19.016;2023-03-05T10:01:43;98738.41;;;4.92;66.71
42289;BME280;30230;47.520;19.016;2023-03-05T10:06:04;98752.41;;;4.94;65.91
42289;BME280;30230;47.520;19.016;2023-03-05T10:08:07;98747.34;;;5.00;65.78
42289;BME280;30230;47.520;19.016;2023-03-05T10:10:51;98739.47;;;4.83;66.48
42289;BME280;30230;47.520;19.016;2023-03-05T10:12:55;98740.94;;;4.86;66.09
42289;BME280;30230;47.520;19.016;2023-03-05T10:14:57;98742.38;;;4.96;65.49
42289;BME280;30230;47.520;19.016;2023-03-05T10:26:51;98729.47;;;5.15;64.56
42289;BME280;30230;47.520;19.016;2023-03-05T10:38:24;98719.91;;;5.35;62.11
42289;BME280;30230;47.520;19.016;2023-03-05T10:42:50;98716.94;;;5.30;62.14
42289;BME280;30230;47.520;19.016;2023-03-05T10:44:58;98717.31;;;5.27;62.23
42289;BME280;30230;47.520;19.016;2023-03-05T10:47:00;98712.25;;;5.17;62.36
42289;BME280;30230;47.520;19.016;2023-03-05T10:49:19;98718.03;;;5.21;63.54
42289;BME280;30230;47.520;19.016;2023-03-05T10:53:35;98719.09;;;5.79;70.50
42289;BME280;30230;47.520;19.016;2023-03-05T10:55:40;98714.28;;;5.74;62.07
42289;BME280;30230;47.520;19.016;2023-03-05T10:57:41;98701.59;;;5.68;61.22
42289;BME280;30230;47.520;19.016;2023-03-05T10:59:52;98690.19;;;5.60;61.13
42289;BME280;30230;47.520;19.016;2023-03-05T11:02:04;98701.72;;;5.45;61.16
42289;BME280;30230;47.520;19.016;2023-03-05T11:04:25;98705.50;;;5.36;61.72
42289;BME280;30230;47.520;19.016;2023-03-05T11:06:32;98704.38;;;5.31;61.47
42289;BME280;30230;47.520;19.016;2023-03-05T11:08:36;98693.47;;;5.32;61.56
42289;BME280;30230;47.520;19.016;2023-03-05T11:10:36;98699.59;;;5.26;62.18
42289;BME280;30230;47.520;19.016;2023-03-05T11:12:37;98689.00;;;5.33;60.94
42289;BME280;30230;47.520;19.016;2023-03-05T11:16:48;98685.56;;;5.39;60.52
42289;BME280;30230;47.520;19.016;2023-03-05T11:19:11;98685.66;;;5.60;60.26
42289;BME280;30230;47.520;19.016;2023-03-05T11:23:21;98668.47;;;5.55;61.11